首页
METAR-TAF:

METAR-TAF

机场 :

渥太华麦克唐纳-卡蒂埃国际机场

渥太華, 安大略省, 加拿大

纬度: 45-19N, 经度: 075-40W, 海拔: 116米

当前天气观测

该预报发布于1小时和3分钟前的03:00 UTC
风速22节,风向西,有时为28节阵风
温度 -8°C
湿度 52%
气压 1027 hPa
能見度: 24.1公里
少量云层高于4500英尺

METAR: CYOW 120300Z 28022G28KT 15SM FEW045 M08/M16 A3033 RMK SC1 SLP282

时间: 23:03 (04:03 UTC)

预报

该预报发布于1小时和25分钟前的02:38 UTC
预报有效从12日的 03点(UTC)到 12日的 24点(UTC)
风速15节,风向西,有时为25节阵风
能見度: 10公里
少量云层高于4000英尺
成为
从 12日的 04点(UTC)到 12日的 06点(UTC)
风速12节,风向西转西北
从 12日的 0800点(UTC)
风速8节,风向西
能見度: 10公里
多云层高于4000英尺
从 12日的 1600点(UTC)
风速8节,风向西南
能見度: 10公里
少量云层高于2500英尺
阴天层高于10000英尺
从 12日的 2200点(UTC)
风速7节,风向南转西南
能見度: 9.7公里
多云层高于2500英尺
阴天层高于8000英尺
小雪
成为
从 12日的 22点(UTC)到 12日的 24点(UTC)
风速8节,风向东南

TAF: CYOW 120238Z 1203/1224 27015G25KT P6SM FEW040 BECMG 1204/1206 29012KT FM120800 27008KT P6SM BKN040 FM121600 23008KT P6SM FEW025 OVC100 FM122200 20007KT 6SM -SN BKN025 OVC080 BECMG 1222/1224 14008KT RMK NXT FCST BY 120600Z

超过4000个机场的气象观测和天气预报(METAR&TAF报告)。

可查询的气象台以黄色和红色小点在地图上表示。

将鼠标移到小点上方,可查看气象台名称。

然后点击查看天气观测和预报。

如需切换地图:点击带黑十字的绿色按钮放大地图;点击带横线的绿色按钮缩小地图;或者点击绿色箭头查看邻近地区的地图。


METAR-TAF: